Donahue, Iowa
Current Conditions -  °F | °C
As of 12:52 PM on Friday 21 Nov 2014 (Local Time) from KDVN Reporting Station
Clear Clear  
Wind Chill: 23°   Ceiling: Unl
Heat Index: 33°   Visibility: 10mi
Dew Point:   Wind: 15mph
Humidity: 32%   Direction: 160°SSE
Pressure: 30.32"   Gusts: NA
Location:  41.69°N, 90.68°W
Report Text: KDVN 211852Z AUTO 16013KT 10SM CLR 01/M14 A3032 RMK AO2 SLP280 T00061144
Loading
Personal Weather Stations






























Interactive Weather Map New forecast layout! Learn more

10-Day Weather Forecast

Advertisements
Track Severe Weather on mobile